Time;durP1;ratioP1;P1;durP2;ratioP2;P2;SDS_P1;SDS_P2;PMS_P1;PMS_P2;Temp;Humidity;BMP_temperature;BMP_pressure;BME280_temperature;BME280_humidity;BME280_pressure;Samples;Min_cycle;Max_cycle;Signal;HPM_P1;HPM_P2
2022/05/13 00:02:24;;;;;;;13.52;3.17;;;;;;;12.67;90.00;101777.53;5017306;28;20033;-65
2022/05/13 00:04:49;;;;;;;17.33;3.45;;;;;;;12.68;91.23;101781.06;5035234;28;20120;-65
2022/05/13 00:07:15;;;;;;;16.63;3.45;;;;;;;12.66;91.81;101774.94;5018551;28;20061;-65
2022/05/13 00:10:00;;;;;;;15.77;3.05;;;;;;;12.62;92.37;101768.88;5018288;28;20156;-65
2022/05/13 00:12:31;;;;;;;16.60;3.28;;;;;;;12.62;93.63;101780.38;5003460;28;20539;-65
2022/05/13 00:14:58;;;;;;;18.35;3.83;;;;;;;12.56;94.81;101772.66;5034822;28;20064;-65
2022/05/13 00:17:24;;;;;;;12.20;2.92;;;;;;;12.57;95.45;101771.72;5017355;28;20124;-65
2022/05/13 00:19:50;;;;;;;17.95;3.30;;;;;;;12.54;96.37;101769.16;5019120;28;20036;-65
2022/05/13 00:22:16;;;;;;;16.67;3.17;;;;;;;12.55;97.20;101767.41;5054622;28;20037;-65
2022/05/13 00:24:41;;;;;;;24.67;3.83;;;;;;;12.55;97.54;101759.44;5054821;28;20025;-65
2022/05/13 00:27:07;;;;;;;19.85;3.63;;;;;;;12.58;97.68;101761.94;5054557;28;20021;-65
2022/05/13 00:29:34;;;;;;;14.50;3.88;;;;;;;12.62;98.43;101769.75;5038804;28;20032;-65
2022/05/13 00:31:59;;;;;;;22.27;4.28;;;;;;;12.64;98.66;101755.56;5054005;28;20037;-65
2022/05/13 00:34:25;;;;;;;20.70;3.72;;;;;;;12.65;99.10;101763.47;5054384;28;20052;-65
2022/05/13 00:36:51;;;;;;;17.38;3.63;;;;;;;12.66;99.51;101762.53;5036621;28;20090;-65
2022/05/13 00:39:17;;;;;;;20.33;3.53;;;;;;;12.68;99.81;101767.78;5036154;28;20376;-65
2022/05/13 00:41:42;;;;;;;17.33;3.58;;;;;;;12.70;100.00;101764.16;5053908;28;20041;-65
2022/05/13 00:44:08;;;;;;;20.65;3.72;;;;;;;12.71;100.00;101765.00;5053922;28;20104;-65
2022/05/13 00:46:34;;;;;;;20.38;3.80;;;;;;;12.71;100.00;101765.00;5036570;28;20051;-65
2022/05/13 00:49:03;;;;;;;21.88;4.05;;;;;;;12.71;100.00;101762.34;5053559;28;20057;-66
2022/05/13 00:51:38;;;;;;;22.00;3.60;;;;;;;12.69;100.00;101764.22;5053855;28;20025;-66
2022/05/13 00:54:06;;;;;;;19.98;3.58;;;;;;;12.70;100.00;101758.84;5036687;28;20080;-65
2022/05/13 00:56:32;;;;;;;19.25;3.65;;;;;;;12.70;100.00;101750.84;5054231;28;20025;-66
2022/05/13 00:59:01;;;;;;;19.35;4.57;;;;;;;12.71;100.00;101762.34;5053486;28;20051;-65
2022/05/13 01:01:27;;;;;;;17.15;3.45;;;;;;;12.74;100.00;101759.59;5017093;28;20025;-65
2022/05/13 01:03:53;;;;;;;17.52;3.78;;;;;;;12.74;100.00;101748.94;5031628;28;20033;-65
2022/05/13 01:06:22;;;;;;;18.98;3.92;;;;;;;12.79;100.00;101749.63;5034056;28;20040;-65
2022/05/13 01:08:47;;;;;;;18.30;4.28;;;;;;;12.80;100.00;101743.41;5033826;28;20025;-65
2022/05/13 01:11:17;;;;;;;22.73;4.35;;;;;;;12.82;99.66;101746.00;5033522;28;20033;-64
2022/05/13 01:13:46;;;;;;;17.23;4.03;;;;;;;12.84;99.46;101738.81;5033784;28;20156;-64
2022/05/13 01:16:12;;;;;;;20.63;3.60;;;;;;;12.83;99.38;101743.25;5033767;28;20025;-64
2022/05/13 01:18:39;;;;;;;20.25;4.13;;;;;;;12.83;98.33;101751.25;5033746;28;20032;-64
2022/05/13 01:21:08;;;;;;;14.40;3.30;;;;;;;12.86;97.90;101742.28;5034504;28;20040;-64
2022/05/13 01:23:37;;;;;;;19.17;4.28;;;;;;;12.88;97.03;101745.75;5034785;28;20108;-64
2022/05/13 01:26:09;;;;;;;18.35;3.38;;;;;;;12.87;95.52;101744.00;5015975;28;20086;-63
2022/05/13 01:28:47;;;;;;;15.18;2.88;;;;;;;12.90;93.10;101746.53;5034571;28;20029;-63
2022/05/13 01:31:20;;;;;;;15.55;3.65;;;;;;;12.97;91.67;101742.72;5039663;28;20029;-64
2022/05/13 01:33:45;;;;;;;16.10;3.08;;;;;;;13.01;90.55;101756.75;5053015;28;20092;-64
2022/05/13 01:36:12;;;;;;;14.75;2.95;;;;;;;12.98;90.24;101740.91;5071948;28;20033;-64
2022/05/13 01:38:40;;;;;;;14.13;3.35;;;;;;;13.04;89.47;101746.84;5055405;28;20021;-64
2022/05/13 01:41:07;;;;;;;12.05;2.60;;;;;;;13.09;87.95;101739.56;5052231;28;20033;-63
2022/05/13 01:43:33;;;;;;;16.10;3.20;;;;;;;13.10;87.56;101741.28;5053291;28;20048;-64
2022/05/13 01:45:58;;;;;;;14.80;3.20;;;;;;;13.14;87.81;101742.00;5053133;28;20029;-64
2022/05/13 01:48:26;;;;;;;16.38;2.97;;;;;;;13.10;87.63;101743.94;5052759;28;20080;-64
2022/05/13 01:50:51;;;;;;;13.32;2.85;;;;;;;13.13;86.28;101745.59;5052550;28;20063;-65
2022/05/13 01:53:17;;;;;;;14.25;3.03;;;;;;;13.09;85.85;101741.34;5052168;28;20465;-64
2022/05/13 01:55:42;;;;;;;11.35;2.97;;;;;;;13.14;84.36;101749.13;5052768;28;20039;-64
2022/05/13 01:58:13;;;;;;;15.07;2.80;;;;;;;13.18;84.40;101745.41;5052931;28;20048;-65
2022/05/13 02:00:40;;;;;;;11.50;2.43;;;;;;;13.19;82.95;101740.03;5034385;28;20377;-64
2022/05/13 02:05:49;;;;;;;12.15;2.92;;;;;;;13.15;83.09;101737.56;5037419;28;20048;-64
2022/05/13 02:08:15;;;;;;;14.13;2.70;;;;;;;13.10;83.71;101725.31;5034802;28;20028;-64
2022/05/13 02:10:41;;;;;;;7.57;2.50;;;;;;;13.07;83.64;101730.78;5052356;28;20033;-64
2022/05/13 02:13:07;;;;;;;11.52;2.88;;;;;;;13.01;83.74;101732.81;5034548;28;20078;-64
2022/05/13 02:15:32;;;;;;;11.30;3.25;;;;;;;12.96;84.32;101740.97;5034611;28;20538;-64
2022/05/13 02:17:58;;;;;;;9.80;2.92;;;;;;;12.93;84.27;101736.66;5052712;28;20025;-65
2022/05/13 02:20:23;;;;;;;12.13;2.95;;;;;;;12.91;85.11;101741.16;5052112;28;20037;-65
2022/05/13 02:22:48;;;;;;;13.07;3.30;;;;;;;12.86;85.82;101739.63;5034242;28;20029;-64
2022/05/13 02:25:14;;;;;;;12.60;2.70;;;;;;;12.85;86.48;101732.56;5034642;28;20037;-64
2022/05/13 02:27:39;;;;;;;12.88;2.90;;;;;;;12.78;86.31;101731.94;5052421;28;20021;-64
2022/05/13 02:30:06;;;;;;;12.23;2.90;;;;;;;12.77;86.60;101730.22;5034591;28;20025;-64
2022/05/13 02:32:31;;;;;;;13.70;3.00;;;;;;;12.75;86.79;101745.38;5051332;28;20113;-62
2022/05/13 02:34:56;;;;;;;13.70;3.22;;;;;;;12.72;86.86;101727.72;5052302;28;20056;-63
2022/05/13 02:37:23;;;;;;;10.13;3.05;;;;;;;12.70;86.70;101718.97;5052201;28;20037;-64
2022/05/13 02:39:48;;;;;;;12.07;2.72;;;;;;;12.72;86.59;101718.91;5034503;28;20037;-64
2022/05/13 02:42:14;;;;;;;14.57;2.85;;;;;;;12.66;86.78;101701.41;5051848;28;20567;-64
2022/05/13 02:44:40;;;;;;;11.30;3.28;;;;;;;12.66;86.29;101692.56;5033894;28;20396;-64
2022/05/13 02:47:06;;;;;;;14.25;3.03;;;;;;;12.64;86.34;101715.69;5052188;28;20029;-65
2022/05/13 02:49:31;;;;;;;10.00;2.42;;;;;;;12.62;86.39;101723.69;5052054;28;20061;-65
2022/05/13 02:51:57;;;;;;;9.90;3.00;;;;;;;12.59;86.44;101706.09;5051344;28;20064;-65
2022/05/13 02:54:22;;;;;;;13.95;2.90;;;;;;;12.57;86.65;101715.94;5051533;28;20049;-65
2022/05/13 02:56:47;;;;;;;10.38;3.42;;;;;;;12.55;86.57;101715.13;5035028;28;20532;-65
2022/05/13 02:59:13;;;;;;;6.30;2.40;;;;;;;12.50;86.60;101718.88;5051776;28;20059;-65
2022/05/13 03:01:38;;;;;;;11.43;3.22;;;;;;;12.48;86.36;101716.31;5033808;28;20060;-65
2022/05/13 03:04:04;;;;;;;13.25;2.70;;;;;;;12.46;86.22;101713.69;5033778;28;20029;-65
2022/05/13 03:06:29;;;;;;;11.07;3.05;;;;;;;12.46;86.05;101719.00;5051745;28;20516;-65
2022/05/13 03:08:55;;;;;;;10.88;2.63;;;;;;;12.45;86.03;101725.25;5051619;28;20449;-65
2022/05/13 03:11:20;;;;;;;11.73;3.05;;;;;;;12.45;85.75;101719.94;5051713;28;20029;-65
2022/05/13 03:13:47;;;;;;;14.57;2.97;;;;;;;12.43;85.90;101719.13;5051245;28;20113;-65
2022/05/13 03:16:19;;;;;;;9.20;2.28;;;;;;;12.43;85.78;101716.47;5051783;28;20028;-65
2022/05/13 03:18:46;;;;;;;14.82;2.92;;;;;;;12.41;85.68;101718.31;5051829;28;20373;-65
2022/05/13 03:21:12;;;;;;;16.98;2.97;;;;;;;12.39;85.38;101719.28;5051260;28;20028;-65
2022/05/13 03:23:42;;;;;;;7.97;2.70;;;;;;;12.37;85.53;101718.50;5033225;28;20017;-64
2022/05/13 03:26:08;;;;;;;9.02;2.60;;;;;;;12.37;85.45;101721.16;5033776;28;20025;-64
2022/05/13 03:28:34;;;;;;;14.18;3.10;;;;;;;12.37;86.01;101727.31;5055115;28;20025;-66
2022/05/13 03:30:59;;;;;;;13.25;2.70;;;;;;;12.34;85.98;101729.22;5055756;28;20159;-65
2022/05/13 03:33:24;;;;;;;10.25;2.83;;;;;;;12.35;86.26;101731.81;5052999;28;20116;-65
2022/05/13 03:35:50;;;;;;;7.70;2.75;;;;;;;12.31;86.47;101732.88;5035705;28;20032;-65
2022/05/13 03:38:16;;;;;;;11.45;2.60;;;;;;;12.34;86.73;101735.41;5018063;28;20087;-65
2022/05/13 03:40:42;;;;;;;7.35;2.35;;;;;;;12.35;87.03;101739.78;5034367;28;20033;-65
2022/05/13 03:43:07;;;;;;;12.32;2.95;;;;;;;12.38;87.44;101731.72;5035426;28;20083;-65
2022/05/13 03:45:34;;;;;;;11.75;2.50;;;;;;;12.39;87.73;101728.13;5035494;28;20067;-65
2022/05/13 03:48:00;;;;;;;11.98;2.55;;;;;;;12.41;88.32;101734.25;5035239;28;20045;-65
2022/05/13 03:50:27;;;;;;;11.00;2.60;;;;;;;12.41;88.71;101728.94;5035213;28;20417;-63
2022/05/13 03:52:52;;;;;;;13.43;2.92;;;;;;;12.43;88.98;101743.03;5035133;28;20021;-64
2022/05/13 03:55:19;;;;;;;10.35;2.63;;;;;;;12.45;89.35;101735.88;5036260;28;20030;-64
2022/05/13 03:57:44;;;;;;;12.00;2.95;;;;;;;12.49;89.31;101751.69;5035166;28;20534;-64
2022/05/13 04:00:10;;;;;;;9.90;2.85;;;;;;;12.55;89.49;101741.69;5002088;28;20029;-65
2022/05/13 04:02:37;;;;;;;12.18;2.83;;;;;;;12.56;89.24;101731.94;5017262;28;20037;-65
2022/05/13 04:10:31;;;;;;;9.25;2.65;;;;;;;12.53;89.07;101738.25;5034660;28;20130;-65
2022/05/13 04:18:24;;;;;;;8.30;2.45;;;;;;;12.45;89.45;101746.50;5020188;28;20156;-65
2022/05/13 04:20:50;;;;;;;12.60;2.80;;;;;;;12.43;89.38;101743.03;5052234;28;20037;-65
2022/05/13 04:23:17;;;;;;;8.18;2.50;;;;;;;12.43;89.35;101750.16;5054164;28;20020;-65
2022/05/13 04:25:43;;;;;;;8.38;2.67;;;;;;;12.40;89.61;101743.13;5036464;28;20033;-65
2022/05/13 04:28:08;;;;;;;13.65;3.13;;;;;;;12.39;89.67;101730.78;5054755;28;20036;-65
2022/05/13 04:30:33;;;;;;;8.35;2.63;;;;;;;12.40;89.73;101731.66;5036958;28;20076;-65
2022/05/13 04:32:59;;;;;;;10.50;2.35;;;;;;;12.42;89.42;101732.47;5003589;28;20063;-65
2022/05/13 04:35:24;;;;;;;9.27;2.85;;;;;;;12.52;88.57;101748.91;5053946;28;20044;-64
2022/05/13 04:37:49;;;;;;;8.18;2.45;;;;;;;12.56;88.34;101746.06;5036227;28;20036;-64
2022/05/13 04:40:15;;;;;;;9.18;2.33;;;;;;;12.65;87.89;101755.50;5054368;28;20036;-65
2022/05/13 04:42:49;;;;;;;11.27;2.70;;;;;;;12.75;87.42;101758.66;5036357;28;20036;-65
2022/05/13 04:45:25;;;;;;;9.82;2.28;;;;;;;12.82;87.02;101770.75;5052802;28;20033;-65
2022/05/13 04:48:15;;;;;;;8.13;2.42;;;;;;;12.86;86.54;101771.50;5037507;28;20154;-65
2022/05/13 04:50:42;;;;;;;8.73;2.20;;;;;;;12.90;86.66;101783.75;5053597;28;20527;-66
2022/05/13 04:53:08;;;;;;;9.63;2.35;;;;;;;12.92;86.87;101777.44;5053799;28;20109;-66
2022/05/13 04:55:35;;;;;;;9.57;2.08;;;;;;;13.04;86.54;101783.22;5034885;28;20496;-65
2022/05/13 04:58:00;;;;;;;13.40;2.45;;;;;;;13.01;86.55;101783.34;5053486;28;20021;-65
2022/05/13 05:00:27;;;;;;;11.02;2.60;;;;;;;13.07;86.23;101791.06;5035465;28;20029;-66
2022/05/13 05:02:52;;;;;;;8.93;2.20;;;;;;;13.08;86.26;101792.78;5051240;28;20047;-65
2022/05/13 05:05:17;;;;;;;10.75;2.55;;;;;;;13.12;85.91;101794.41;5050651;28;20021;-66
2022/05/13 05:07:43;;;;;;;12.07;2.70;;;;;;;13.14;85.78;101787.22;5052973;28;20400;-63
2022/05/13 05:10:10;;;;;;;9.10;2.40;;;;;;;13.24;84.71;101795.69;5035824;28;20112;-64
2022/05/13 05:12:37;;;;;;;6.30;1.92;;;;;;;13.20;84.43;101789.63;5053590;28;20104;-65
2022/05/13 05:15:03;;;;;;;8.30;2.22;;;;;;;13.30;83.99;101802.56;5035358;28;20057;-64
2022/05/13 05:17:28;;;;;;;9.23;2.40;;;;;;;13.19;84.08;101800.34;5050779;28;20032;-64
2022/05/13 05:19:54;;;;;;;6.43;2.00;;;;;;;13.30;83.65;101805.22;5041180;28;20028;-64
2022/05/13 05:22:19;;;;;;;10.80;2.63;;;;;;;13.30;83.76;101805.22;5051538;28;20028;-64
2022/05/13 05:24:46;;;;;;;9.27;2.45;;;;;;;13.37;83.48;101806.75;5035521;28;20021;-64
2022/05/13 05:27:12;;;;;;;5.97;2.20;;;;;;;13.33;83.84;101819.25;5052546;28;20048;-64
2022/05/13 05:29:38;;;;;;;11.32;2.65;;;;;;;13.30;83.98;101814.09;5053422;28;20033;-64
2022/05/13 05:32:04;;;;;;;11.27;2.28;;;;;;;13.30;84.55;101811.41;5051610;28;20111;-65
2022/05/13 05:34:30;;;;;;;10.80;2.30;;;;;;;13.38;84.44;101814.66;5039206;28;20473;-64
2022/05/13 05:36:55;;;;;;;6.85;2.10;;;;;;;13.40;84.28;101818.13;5031891;28;20179;-64
2022/05/13 05:39:21;;;;;;;17.52;2.45;;;;;;;13.44;84.26;101825.03;5049787;28;20021;-65
2022/05/13 05:41:46;;;;;;;11.70;2.30;;;;;;;13.51;84.11;101830.13;5051551;28;20108;-65
2022/05/13 05:44:11;;;;;;;9.48;2.28;;;;;;;13.53;84.10;101826.47;5052421;28;20021;-66
2022/05/13 05:46:37;;;;;;;12.25;2.42;;;;;;;13.67;83.45;101835.66;5036016;28;20033;-64
2022/05/13 05:49:02;;;;;;;13.52;2.50;;;;;;;13.72;83.48;101839.88;5046957;28;20049;-65
2022/05/13 05:51:28;;;;;;;13.52;2.25;;;;;;;13.81;83.22;101825.31;5034683;28;20033;-64
2022/05/13 05:59:21;;;;;;;12.85;3.22;;;;;;;13.88;81.25;101834.75;5052434;28;20133;-65
2022/05/13 06:01:47;;;;;;;14.38;2.20;;;;;;;13.95;80.56;101842.47;5047980;28;20527;-67
2022/05/13 06:04:12;;;;;;;14.05;2.58;;;;;;;13.89;81.80;101855.13;5052523;28;20747;-65
2022/05/13 06:06:37;;;;;;;10.90;2.33;;;;;;;13.86;81.70;101854.38;5047762;28;20030;-65
2022/05/13 06:09:03;;;;;;;13.73;2.63;;;;;;;13.86;82.27;101847.28;5036579;28;20059;-65
2022/05/13 06:11:29;;;;;;;12.38;2.22;;;;;;;13.96;81.46;101847.72;5052436;28;20385;-65
2022/05/13 06:13:57;;;;;;;8.35;2.25;;;;;;;14.06;80.89;101851.72;5052256;28;20052;-65
2022/05/13 06:16:24;;;;;;;12.27;2.40;;;;;;;14.05;80.80;101863.34;5054726;28;20029;-65
2022/05/13 06:18:50;;;;;;;9.50;2.35;;;;;;;14.10;80.03;101860.44;5071940;28;20106;-65
2022/05/13 06:21:16;;;;;;;8.65;2.10;;;;;;;13.98;80.35;101847.66;5072151;28;20466;-64
2022/05/13 06:23:41;;;;;;;15.02;2.22;;;;;;;13.80;81.08;101862.63;5069919;28;20024;-63
2022/05/13 06:26:07;;;;;;;13.10;2.50;;;;;;;13.76;81.53;101828.16;5051705;28;20035;-61
2022/05/13 06:28:33;;;;;;;10.25;2.40;;;;;;;13.70;80.96;101843.53;5034275;28;20043;-62
2022/05/13 06:30:59;;;;;;;6.38;2.05;;;;;;;13.60;80.88;101853.69;5051833;28;20115;-60
2022/05/13 06:33:25;;;;;;;19.25;2.88;;;;;;;13.64;80.86;101867.72;5051942;28;20033;-63
2022/05/13 06:35:51;;;;;;;13.55;2.10;;;;;;;13.82;80.18;101872.28;5033838;28;20473;-64
2022/05/13 06:38:20;;;;;;;7.47;1.85;;;;;;;13.87;79.67;101864.97;5051074;28;20090;-64
2022/05/13 06:40:50;;;;;;;7.65;1.88;;;;;;;13.84;78.42;101875.75;5051666;28;20032;-65
2022/05/13 06:43:16;;;;;;;7.30;2.03;;;;;;;13.81;78.04;101870.56;5054647;28;20391;-64
2022/05/13 06:45:42;;;;;;;9.02;2.63;;;;;;;13.90;77.91;101866.63;5051361;28;20103;-64
2022/05/13 06:48:08;;;;;;;10.10;2.00;;;;;;;14.00;78.65;101873.31;5050960;28;20072;-65
2022/05/13 06:50:34;;;;;;;10.43;2.25;;;;;;;14.15;76.54;101869.09;5051708;28;20081;-65
2022/05/13 06:52:59;;;;;;;5.78;1.90;;;;;;;14.25;76.76;101872.25;5051241;28;20111;-65
2022/05/13 06:55:25;;;;;;;10.32;1.83;;;;;;;14.23;76.15;101874.97;5051731;28;20025;-64
2022/05/13 06:57:50;;;;;;;12.10;1.73;;;;;;;14.41;76.11;101883.97;5033736;28;20397;-65
2022/05/13 07:00:17;;;;;;;9.77;2.17;;;;;;;14.50;75.12;101880.03;5050178;28;20166;-65
2022/05/13 07:02:42;;;;;;;9.40;1.90;;;;;;;14.52;75.17;101887.94;5032574;28;20479;-65
2022/05/13 07:05:13;;;;;;;9.05;1.90;;;;;;;14.61;74.69;101903.53;5033330;28;20028;-65
2022/05/13 07:07:39;;;;;;;7.47;1.92;;;;;;;14.62;72.99;101899.94;5050071;28;20055;-65
2022/05/13 07:10:05;;;;;;;5.80;1.90;;;;;;;14.69;72.54;101898.75;5050175;28;20514;-65
2022/05/13 07:12:31;;;;;;;11.40;2.00;;;;;;;14.79;72.48;101888.53;5051736;28;20036;-65
2022/05/13 07:14:57;;;;;;;5.88;1.77;;;;;;;14.94;71.92;101897.63;5050883;28;20025;-65
2022/05/13 07:17:23;;;;;;;6.13;2.00;;;;;;;15.08;71.17;101905.84;5033066;28;20044;-65
2022/05/13 07:19:49;;;;;;;5.80;1.60;;;;;;;15.00;70.88;101896.47;5051000;28;20060;-64
2022/05/13 07:22:14;;;;;;;6.57;1.67;;;;;;;15.11;70.99;101912.84;5049775;28;20029;-64
2022/05/13 07:24:40;;;;;;;5.20;2.10;;;;;;;14.89;71.98;101912.97;5050636;28;20032;-64
2022/05/13 07:27:06;;;;;;;5.18;1.90;;;;;;;15.00;73.12;101923.13;5050273;28;20036;-64
2022/05/13 07:29:32;;;;;;;6.93;1.88;;;;;;;15.06;72.14;101912.19;5024049;28;20339;-64
2022/05/13 07:31:57;;;;;;;13.35;1.80;;;;;;;15.10;72.05;101912.91;5030113;28;20485;-64
2022/05/13 07:34:22;;;;;;;6.68;1.98;;;;;;;15.14;72.23;101911.81;5047418;28;20033;-63
2022/05/13 07:36:53;;;;;;;9.45;2.00;;;;;;;15.13;72.53;101916.31;5033311;28;20029;-64
2022/05/13 07:42:23;;;;;;;6.47;1.90;;;;;;;15.17;71.18;101930.38;5005374;28;20038;-65
2022/05/13 07:44:49;;;;;;;10.82;2.42;;;;;;;15.07;71.65;101921.91;5009157;28;20104;-65
2022/05/13 07:47:17;;;;;;;12.73;2.03;;;;;;;15.16;72.37;101923.31;5010680;28;20037;-65
2022/05/13 07:49:45;;;;;;;8.80;1.80;;;;;;;15.28;72.20;101935.19;5049681;28;20079;-64
2022/05/13 07:52:10;;;;;;;8.63;2.00;;;;;;;15.33;70.84;101923.38;5036987;28;20480;-65
2022/05/13 07:54:37;;;;;;;10.52;2.67;;;;;;;15.34;71.61;101938.44;5016021;28;20044;-65
2022/05/13 07:57:04;;;;;;;14.18;2.50;;;;;;;15.49;70.55;101923.50;5032595;28;20396;-63
2022/05/13 07:59:32;;;;;;;6.45;1.88;;;;;;;15.48;71.77;101931.59;5032437;28;20496;-64
2022/05/13 08:01:58;;;;;;;8.30;2.47;;;;;;;15.66;70.39;101927.16;5040344;28;20029;-64
2022/05/13 08:04:24;;;;;;;8.48;1.77;;;;;;;15.38;70.06;101928.47;5032413;28;20527;-64
2022/05/13 08:06:50;;;;;;;9.35;2.03;;;;;;;15.51;69.36;101937.63;5032906;28;20095;-65
2022/05/13 08:09:16;;;;;;;7.53;1.98;;;;;;;15.39;69.46;101938.22;5045436;28;20037;-64
2022/05/13 08:11:43;;;;;;;11.02;1.80;;;;;;;15.48;70.26;101936.91;5031136;28;20040;-64
2022/05/13 08:14:09;;;;;;;6.35;1.67;;;;;;;15.79;68.37;101933.59;5045256;28;20032;-66
2022/05/13 08:16:36;;;;;;;6.68;1.83;;;;;;;15.53;68.34;101925.06;5052995;28;20035;-64
2022/05/13 08:19:02;;;;;;;6.22;1.67;;;;;;;15.62;68.70;101931.78;5036193;28;20043;-65
2022/05/13 08:21:28;;;;;;;7.55;2.15;;;;;;;15.67;67.29;101927.06;5054464;28;20083;-65
2022/05/13 08:23:53;;;;;;;7.57;1.90;;;;;;;15.47;68.32;101949.38;5052291;28;20041;-64
2022/05/13 08:26:19;;;;;;;7.18;1.83;;;;;;;15.50;69.14;101943.91;5036627;28;20455;-65
2022/05/13 08:28:45;;;;;;;9.32;2.25;;;;;;;15.55;69.36;101935.69;5036151;28;20037;-65
2022/05/13 08:31:11;;;;;;;8.77;2.13;;;;;;;15.65;69.36;101944.09;5053468;28;20033;-64
2022/05/13 08:33:37;;;;;;;9.00;2.15;;;;;;;15.88;69.79;101951.00;5050676;28;20044;-64
2022/05/13 08:36:04;;;;;;;9.25;2.03;;;;;;;15.95;68.27;101949.78;5034966;28;20021;-65
2022/05/13 08:38:39;;;;;;;14.25;2.47;;;;;;;16.11;67.73;101949.00;5052976;28;20028;-65
2022/05/13 08:41:07;;;;;;;7.15;2.00;;;;;;;16.19;66.33;101950.34;5053843;28;20434;-65
2022/05/13 08:43:39;;;;;;;5.65;1.90;;;;;;;16.53;66.14;101964.66;5054120;28;20083;-65
2022/05/13 08:46:19;;;;;;;8.00;2.00;;;;;;;17.77;61.39;101959.78;5035786;28;20025;-64
2022/05/13 08:49:02;;;;;;;7.70;2.10;;;;;;;18.50;57.75;101965.34;5053693;28;20091;-64
2022/05/13 08:51:27;;;;;;;9.15;2.03;;;;;;;19.41;55.60;101960.66;5045037;28;20029;-64
2022/05/13 08:53:56;;;;;;;8.15;2.10;;;;;;;20.06;51.79;101957.28;5053467;28;20103;-64
2022/05/13 08:56:30;;;;;;;10.70;2.28;;;;;;;20.28;51.94;101963.91;5053992;28;20029;-64
2022/05/13 08:59:07;;;;;;;7.75;2.10;;;;;;;19.83;51.88;101971.41;5054805;28;20024;-64
2022/05/13 09:01:45;;;;;;;10.20;2.40;;;;;;;20.13;51.31;101982.81;5053787;28;20028;-65
2022/05/13 09:04:22;;;;;;;6.93;2.00;;;;;;;20.42;49.82;101981.78;5053751;28;20017;-65
2022/05/13 09:06:54;;;;;;;8.25;1.95;;;;;;;21.41;47.09;101980.28;5053230;28;20033;-64
2022/05/13 09:09:20;;;;;;;8.48;2.15;;;;;;;21.23;46.08;101982.47;5053549;28;20033;-64
2022/05/13 09:12:18;;;;;;;8.70;2.20;;;;;;;20.60;47.17;101988.59;5053550;28;20108;-65
2022/05/13 09:14:48;;;;;;;10.95;2.28;;;;;;;20.49;47.56;101975.03;5053294;28;20024;-64
2022/05/13 09:17:30;;;;;;;9.30;2.20;;;;;;;19.97;50.22;101977.59;5053278;28;20101;-65
2022/05/13 09:20:11;;;;;;;8.68;2.30;;;;;;;20.92;46.45;101984.63;5052648;28;20040;-65
2022/05/13 09:22:49;;;;;;;8.07;2.30;;;;;;;21.34;44.16;102000.53;5053423;28;20086;-65
2022/05/13 09:25:24;;;;;;;5.90;2.13;;;;;;;20.67;46.75;101972.88;5052450;28;20033;-64
2022/05/13 09:27:56;;;;;;;6.38;2.00;;;;;;;20.30;46.59;101997.78;5053179;28;20029;-66
2022/05/13 09:30:24;;;;;;;11.25;2.30;;;;;;;20.65;46.79;101987.41;5051345;28;20021;-64
2022/05/13 09:32:50;;;;;;;6.45;2.35;;;;;;;20.81;45.53;102004.25;5052404;28;20059;-64
2022/05/13 09:35:28;;;;;;;8.60;2.60;;;;;;;20.14;47.19;101994.41;5052890;28;20079;-64
2022/05/13 09:37:54;;;;;;;9.88;2.40;;;;;;;20.27;48.55;102003.41;5052306;28;20036;-64
2022/05/13 09:40:24;;;;;;;11.63;2.40;;;;;;;21.11;45.49;101997.66;5052572;28;20037;-65
2022/05/13 09:42:53;;;;;;;11.80;2.50;;;;;;;20.89;46.24;102009.09;5033549;28;20025;-64
2022/05/13 09:45:21;;;;;;;8.13;2.13;;;;;;;20.94;47.20;101999.72;5051994;28;20028;-62
2022/05/13 09:48:19;;;;;;;7.38;2.40;;;;;;;21.64;43.98;101992.09;5032569;28;20082;-64
2022/05/13 09:50:59;;;;;;;9.05;2.22;;;;;;;21.69;44.21;101997.13;5051100;28;20090;-63
2022/05/13 09:53:24;;;;;;;11.48;2.55;;;;;;;21.99;43.29;101995.84;5049486;28;20025;-60
2022/05/13 09:55:52;;;;;;;14.52;3.28;;;;;;;22.62;41.55;101992.88;5034740;28;20112;-63
2022/05/13 09:58:22;;;;;;;14.27;4.18;;;;;;;22.56;40.98;101978.88;5034460;28;20025;-64
2022/05/13 10:00:52;;;;;;;9.68;2.10;;;;;;;22.69;40.67;102007.63;5051616;28;20059;-64
2022/05/13 10:03:26;;;;;;;8.45;2.17;;;;;;;22.27;41.02;102005.38;5052702;28;20484;-64
2022/05/13 10:06:04;;;;;;;10.90;2.38;;;;;;;21.97;41.74;102003.16;5034209;28;20060;-64
2022/05/13 10:08:29;;;;;;;8.82;2.58;;;;;;;21.64;42.47;102002.00;5050906;28;20071;-64
2022/05/13 10:14:26;;;;;;;7.93;2.33;;;;;;;20.39;46.65;102001.69;5051729;28;20043;-64
2022/05/13 10:16:54;;;;;;;7.45;2.33;;;;;;;20.58;44.74;101993.22;5051065;28;20024;-64
2022/05/13 10:19:28;;;;;;;4.60;1.85;;;;;;;20.91;43.92;101993.72;5033872;28;20028;-65
2022/05/13 10:22:12;;;;;;;10.10;2.05;;;;;;;20.30;46.07;102005.00;5050956;28;20122;-64
2022/05/13 10:24:40;;;;;;;10.82;2.42;;;;;;;20.49;45.82;101998.34;5047149;28;20033;-64
2022/05/13 10:27:15;;;;;;;7.38;2.17;;;;;;;21.13;44.29;102000.28;5048908;28;20033;-63
2022/05/13 10:29:45;;;;;;;7.45;2.30;;;;;;;21.18;44.32;101998.97;5022969;28;20025;-64
2022/05/13 10:32:24;;;;;;;8.73;2.30;;;;;;;22.05;42.52;101984.59;5031860;28;20099;-64
2022/05/13 10:34:54;;;;;;;9.68;2.60;;;;;;;22.45;40.24;102003.13;5037793;28;20033;-65
2022/05/13 10:37:28;;;;;;;7.22;2.10;;;;;;;21.70;41.03;102007.81;5025682;28;20074;-65
2022/05/13 10:40:06;;;;;;;7.75;2.30;;;;;;;20.83;42.79;102002.34;5051619;28;20044;-65
2022/05/13 10:42:35;;;;;;;6.90;2.08;;;;;;;20.12;45.18;101996.34;5047540;28;20460;-65
2022/05/13 10:45:20;;;;;;;8.48;2.42;;;;;;;20.14;47.57;101991.72;5047092;28;20056;-65
2022/05/13 10:47:51;;;;;;;6.25;1.90;;;;;;;20.37;45.41;102005.44;5049785;28;20032;-65
2022/05/13 10:50:20;;;;;;;;;;;;;;;20.85;44.79;102008.44;5051820;28;20053;-64
2022/05/13 10:52:58;;;;;;;7.93;2.30;;;;;;;21.71;43.28;102004.13;5051218;28;19935;-64
2022/05/13 10:55:54;;;;;;;11.27;2.20;;;;;;;21.88;41.41;101992.09;5050499;28;20453;-64
2022/05/13 10:58:40;;;;;;;7.32;2.17;;;;;;;22.43;40.03;102002.41;5003367;28;20025;-65
2022/05/13 11:01:44;;;;;;;5.47;2.17;;;;;;;22.66;38.65;101997.06;5050838;28;20514;-65
2022/05/13 11:04:37;;;;;;;8.40;2.20;;;;;;;22.29;38.81;101997.16;5050243;28;20480;-65
2022/05/13 11:07:33;;;;;;;7.78;2.17;;;;;;;21.90;40.60;101998.22;5034093;28;20646;-64
2022/05/13 11:10:28;;;;;;;15.20;3.63;;;;;;;22.61;40.01;101994.72;5051431;28;20075;-65
2022/05/13 11:13:21;;;;;;;13.95;3.65;;;;;;;22.81;39.82;101987.75;5033432;28;20036;-65
2022/05/13 11:16:16;;;;;;;12.15;2.75;;;;;;;22.23;39.21;101987.72;5050895;28;20032;-65
2022/05/13 11:19:16;;;;;;;13.35;3.25;;;;;;;21.79;40.21;101998.19;5010139;28;20045;-65
2022/05/13 11:21:59;;;;;;;7.93;2.28;;;;;;;21.79;40.97;102005.41;5045826;28;20082;-64
2022/05/13 11:27:33;;;;;;;5.00;2.00;;;;;;;21.64;40.00;101996.59;5050115;28;20032;-66
2022/05/13 11:29:59;;;;;;;9.07;1.90;;;;;;;21.02;41.47;102012.63;5050688;28;20020;-66
2022/05/13 11:32:34;;;;;;;7.47;2.10;;;;;;;20.60;43.46;102009.25;5050326;28;20271;-65
2022/05/13 11:35:14;;;;;;;6.03;2.50;;;;;;;20.00;44.61;102013.31;5032094;28;20056;-65
2022/05/13 11:37:45;;;;;;;5.65;1.75;;;;;;;21.00;42.93;102011.91;5049721;28;20032;-65
2022/05/13 11:40:23;;;;;;;5.65;2.28;;;;;;;21.18;42.65;102004.34;5049284;28;20447;-65
2022/05/13 11:46:06;;;;;;;7.55;1.90;;;;;;;21.67;41.58;102015.25;5051078;28;20044;-65
2022/05/13 11:48:35;;;;;;;5.43;1.90;;;;;;;21.94;40.82;102017.75;5049470;28;20029;-65
2022/05/13 11:51:10;;;;;;;7.95;2.35;;;;;;;21.75;40.11;101994.84;5053572;28;20059;-66
2022/05/13 11:53:43;;;;;;;7.18;1.92;;;;;;;21.49;40.11;102012.91;5054585;28;20499;-63
2022/05/13 11:56:17;;;;;;;12.77;2.22;;;;;;;21.15;41.21;102015.34;5033839;28;20035;-64
2022/05/13 11:58:46;;;;;;;7.00;2.42;;;;;;;20.42;43.52;102022.13;5046244;28;20059;-63
2022/05/13 12:01:12;;;;;;;7.28;1.80;;;;;;;20.14;44.78;102007.84;5054500;28;20035;-64
2022/05/13 12:03:38;;;;;;;5.35;1.85;;;;;;;21.26;43.06;102012.72;5054763;28;20025;-65